createdAt,value
2022-10-25T00:01:20.816Z,14.72
2022-10-25T00:03:47.319Z,14.70
2022-10-25T00:06:14.103Z,14.66
2022-10-25T00:08:40.868Z,14.59
2022-10-25T00:11:08.566Z,14.52
2022-10-25T00:13:34.987Z,14.48
2022-10-25T00:16:01.412Z,14.52
2022-10-25T00:18:28.207Z,14.54
2022-10-25T00:20:54.590Z,14.53
2022-10-25T00:23:21.134Z,14.51
2022-10-25T00:25:47.496Z,14.40
2022-10-25T00:28:16.848Z,14.46
2022-10-25T00:30:43.241Z,14.45
2022-10-25T00:33:09.688Z,14.50
2022-10-25T00:35:36.961Z,14.45
2022-10-25T00:38:03.453Z,14.53
2022-10-25T00:40:29.814Z,14.54
2022-10-25T00:42:56.247Z,14.53
2022-10-25T00:45:25.197Z,14.47
2022-10-25T00:48:04.030Z,14.52
2022-10-25T00:50:42.895Z,14.50
2022-10-25T00:53:16.600Z,14.49
2022-10-25T00:55:47.265Z,14.47
2022-10-25T00:58:18.501Z,14.47
2022-10-25T01:00:45.909Z,14.50
2022-10-25T01:03:14.883Z,14.42
2022-10-25T01:05:41.813Z,14.52
2022-10-25T01:08:08.454Z,14.58
2022-10-25T01:10:34.963Z,14.59
2022-10-25T01:13:02.243Z,14.63
2022-10-25T01:15:36.195Z,14.65
2022-10-25T01:18:31.303Z,14.70
2022-10-25T01:21:00.481Z,14.76
2022-10-25T01:23:35.878Z,14.83
2022-10-25T01:26:12.059Z,14.86
2022-10-25T01:29:19.532Z,14.86
2022-10-25T01:31:53.398Z,14.91
2022-10-25T01:34:48.015Z,14.96
2022-10-25T01:37:26.312Z,14.99
2022-10-25T01:40:30.945Z,15.03
2022-10-25T01:43:13.803Z,15.06
2022-10-25T01:45:53.089Z,14.92
2022-10-25T01:48:21.564Z,15.06
2022-10-25T01:50:48.521Z,15.01
2022-10-25T01:53:15.183Z,15.04
2022-10-25T01:55:56.750Z,15.08
2022-10-25T01:58:44.160Z,15.09
2022-10-25T02:01:35.201Z,15.14
2022-10-25T02:04:22.199Z,15.14
2022-10-25T02:07:18.394Z,15.13
2022-10-25T02:10:01.888Z,15.17
2022-10-25T02:12:55.695Z,15.18
2022-10-25T02:15:34.551Z,15.22
2022-10-25T02:18:04.843Z,15.09
2022-10-25T02:20:33.558Z,15.30
2022-10-25T02:23:02.922Z,15.10
2022-10-25T02:25:32.760Z,15.13
2022-10-25T02:28:02.263Z,15.05
2022-10-25T02:30:32.323Z,15.02
2022-10-25T02:32:59.316Z,14.99
2022-10-25T02:35:25.740Z,15.00
2022-10-25T02:37:52.248Z,14.99
2022-10-25T02:40:19.292Z,14.93
2022-10-25T02:42:45.702Z,15.02
2022-10-25T02:45:12.199Z,14.97
2022-10-25T02:47:38.655Z,15.04
2022-10-25T02:50:05.643Z,15.00
2022-10-25T02:52:32.135Z,15.01
2022-10-25T02:54:58.541Z,15.04
2022-10-25T02:57:24.932Z,14.99
2022-10-25T02:59:51.347Z,15.02
2022-10-25T03:02:17.696Z,15.12
2022-10-25T03:04:44.197Z,15.01
2022-10-25T03:07:10.592Z,15.12
2022-10-25T03:09:36.929Z,15.20
2022-10-25T03:12:03.447Z,15.21
2022-10-25T03:14:29.795Z,15.19
2022-10-25T03:16:56.149Z,15.25
2022-10-25T03:19:22.486Z,15.20
2022-10-25T03:21:48.842Z,15.20
2022-10-25T03:24:15.345Z,15.30
2022-10-25T03:26:41.710Z,15.25
2022-10-25T03:29:08.302Z,15.22
2022-10-25T03:31:34.671Z,15.33
2022-10-25T03:34:01.139Z,15.38
2022-10-25T03:36:27.736Z,15.45
2022-10-25T03:38:54.432Z,15.48
2022-10-25T03:41:20.799Z,15.51
2022-10-25T03:43:47.192Z,15.53
2022-10-25T03:46:13.938Z,15.55
2022-10-25T03:48:40.425Z,15.58
2022-10-25T03:51:06.860Z,15.62
2022-10-25T03:53:33.529Z,15.60
2022-10-25T03:55:59.970Z,15.66
2022-10-25T03:58:26.393Z,15.70
2022-10-25T04:00:52.821Z,15.73
2022-10-25T04:03:19.209Z,15.69
2022-10-25T04:05:45.587Z,15.66
2022-10-25T04:08:11.951Z,15.78
2022-10-25T04:10:38.420Z,15.73
2022-10-25T04:13:04.805Z,15.73
2022-10-25T04:15:31.632Z,15.85
2022-10-25T04:17:58.031Z,15.83
2022-10-25T04:20:24.487Z,15.83
2022-10-25T04:22:55.645Z,15.86
2022-10-25T04:25:23.489Z,15.86
2022-10-25T04:27:50.041Z,15.80
2022-10-25T04:30:16.808Z,15.88
2022-10-25T04:32:43.333Z,15.71
2022-10-25T04:35:10.035Z,15.77
2022-10-25T04:37:36.472Z,15.77
2022-10-25T04:40:02.896Z,15.71
2022-10-25T04:42:29.262Z,15.73
2022-10-25T04:44:55.620Z,15.64
2022-10-25T04:47:22.002Z,15.60
2022-10-25T04:49:48.384Z,15.53
2022-10-25T04:52:14.815Z,15.49
2022-10-25T04:54:41.465Z,15.43
2022-10-25T04:57:07.967Z,15.44
2022-10-25T04:59:34.350Z,15.44
2022-10-25T05:02:00.756Z,15.52
2022-10-25T05:04:27.125Z,15.53
2022-10-25T05:06:53.547Z,15.49
2022-10-25T05:09:19.918Z,15.60
2022-10-25T05:11:46.350Z,15.55
2022-10-25T05:14:14.739Z,15.63
2022-10-25T05:16:41.144Z,15.61
2022-10-25T05:19:07.540Z,15.60
2022-10-25T05:21:35.273Z,15.55
2022-10-25T05:24:02.407Z,15.62
2022-10-25T05:26:30.863Z,15.64
2022-10-25T05:29:00.110Z,15.60
2022-10-25T05:31:29.033Z,15.66
2022-10-25T05:33:57.837Z,15.66
2022-10-25T05:36:25.376Z,15.60
2022-10-25T05:38:51.932Z,15.66
2022-10-25T05:41:18.996Z,15.66
2022-10-25T05:43:45.914Z,15.64
2022-10-25T05:46:20.615Z,15.67
2022-10-25T05:48:48.897Z,15.65
2022-10-25T05:51:36.119Z,15.67
2022-10-25T05:54:13.989Z,15.67
2022-10-25T05:56:40.985Z,15.68
2022-10-25T05:59:10.795Z,15.70
2022-10-25T06:01:40.020Z,15.71
2022-10-25T06:04:06.952Z,15.70
2022-10-25T06:06:33.415Z,15.61
2022-10-25T06:09:01.179Z,15.70
2022-10-25T06:11:28.918Z,15.74
2022-10-25T06:13:55.738Z,15.70
2022-10-25T06:16:22.402Z,15.76
2022-10-25T06:18:49.051Z,15.69
2022-10-25T06:21:18.579Z,15.61
2022-10-25T06:23:45.915Z,15.68
2022-10-25T06:26:15.147Z,15.67
2022-10-25T06:28:42.015Z,15.61
2022-10-25T06:31:14.330Z,15.57
2022-10-25T06:33:41.073Z,15.56
2022-10-25T06:36:13.182Z,15.55
2022-10-25T06:38:39.776Z,15.51
2022-10-25T06:41:11.392Z,15.47
2022-10-25T06:43:38.810Z,15.45
2022-10-25T06:46:10.271Z,15.42
2022-10-25T06:48:37.318Z,15.45
2022-10-25T06:51:09.811Z,15.43
2022-10-25T06:53:37.441Z,15.41
2022-10-25T06:56:09.236Z,15.43
2022-10-25T06:58:38.701Z,15.51
2022-10-25T07:01:11.404Z,15.49
2022-10-25T07:03:38.049Z,15.50
2022-10-25T07:06:12.829Z,15.52
2022-10-25T07:08:41.747Z,15.53
2022-10-25T07:11:13.254Z,15.54
2022-10-25T07:13:39.687Z,15.54
2022-10-25T07:16:07.996Z,15.54
2022-10-25T07:18:35.315Z,15.54
2022-10-25T07:21:21.769Z,15.50
2022-10-25T07:23:49.996Z,15.67
2022-10-25T07:26:23.886Z,15.72
2022-10-25T07:28:52.006Z,15.71
2022-10-25T07:31:20.935Z,15.79
2022-10-25T07:33:48.655Z,15.85
2022-10-25T07:36:15.037Z,15.90
2022-10-25T07:38:41.499Z,15.93
2022-10-25T07:41:08.977Z,16.00
2022-10-25T07:43:35.589Z,16.02
2022-10-25T07:46:02.551Z,16.14
2022-10-25T07:48:32.008Z,16.25
2022-10-25T07:51:02.861Z,16.26
2022-10-25T07:53:29.218Z,16.37
2022-10-25T07:55:55.705Z,16.39
2022-10-25T07:58:22.403Z,16.44
2022-10-25T08:00:48.945Z,16.45
2022-10-25T08:03:17.232Z,16.48
2022-10-25T08:05:45.409Z,16.53
2022-10-25T08:08:12.845Z,16.50
2022-10-25T08:10:41.430Z,16.60
2022-10-25T08:13:07.808Z,16.64
2022-10-25T08:15:36.232Z,16.68
2022-10-25T08:18:04.101Z,16.71
2022-10-25T08:20:56.409Z,16.75
2022-10-25T08:23:18.398Z,16.86
2022-10-25T08:25:45.160Z,16.84
2022-10-25T08:28:11.734Z,16.95
2022-10-25T08:30:38.191Z,16.93
2022-10-25T08:33:07.279Z,16.98
2022-10-25T08:35:35.887Z,17.09
2022-10-25T08:38:04.297Z,17.14
2022-10-25T08:41:26.543Z,17.21
2022-10-25T08:44:14.035Z,17.23
2022-10-25T08:47:00.457Z,17.25
2022-10-25T08:49:41.214Z,17.13
2022-10-25T08:52:18.666Z,17.15
2022-10-25T08:54:46.832Z,17.17
2022-10-25T08:57:24.244Z,17.22
2022-10-25T08:59:54.687Z,17.24
2022-10-25T09:02:43.112Z,17.29
2022-10-25T09:05:36.736Z,17.35
2022-10-25T09:08:17.581Z,17.44
2022-10-25T09:10:53.157Z,17.45
2022-10-25T09:13:31.492Z,17.55
2022-10-25T09:16:14.243Z,17.62
2022-10-25T09:18:50.991Z,17.70
2022-10-25T09:21:48.070Z,17.81
2022-10-25T09:24:22.921Z,17.79
2022-10-25T09:26:58.461Z,17.86
2022-10-25T09:29:50.816Z,17.85
2022-10-25T09:32:29.618Z,17.89
2022-10-25T09:34:56.629Z,17.77
2022-10-25T09:37:30.498Z,17.74
2022-10-25T09:40:00.907Z,17.90
2022-10-25T09:42:33.979Z,17.90
2022-10-25T09:45:06.649Z,18.07
2022-10-25T09:48:18.154Z,18.20
2022-10-25T09:50:53.506Z,18.33
2022-10-25T09:53:23.099Z,18.39
2022-10-25T09:56:03.364Z,18.59
2022-10-25T09:58:37.833Z,18.82
2022-10-25T10:01:07.594Z,18.98
2022-10-25T10:03:36.323Z,19.15
2022-10-25T10:06:16.139Z,19.28
2022-10-25T10:08:49.383Z,19.50
2022-10-25T10:11:18.504Z,19.48
2022-10-25T10:13:50.617Z,19.52
2022-10-25T10:16:38.500Z,19.52
2022-10-25T10:19:20.928Z,19.53
2022-10-25T10:21:51.199Z,19.50
2022-10-25T10:24:23.656Z,19.39
2022-10-25T10:26:55.489Z,19.60
2022-10-25T10:29:33.070Z,19.66
2022-10-25T10:32:01.647Z,19.79
2022-10-25T10:34:51.122Z,19.83
2022-10-25T10:37:22.826Z,19.90
2022-10-25T10:39:59.557Z,19.89
2022-10-25T10:42:36.754Z,19.91
2022-10-25T10:45:09.065Z,19.92
2022-10-25T10:47:41.794Z,19.96
2022-10-25T10:50:25.540Z,20.09
2022-10-25T10:53:17.734Z,20.13
2022-10-25T10:55:44.038Z,20.18
2022-10-25T10:58:24.768Z,20.32
2022-10-25T11:01:06.228Z,20.40
2022-10-25T11:03:48.922Z,20.53
2022-10-25T11:06:29.873Z,20.57
2022-10-25T11:09:19.262Z,20.73
2022-10-25T11:12:05.288Z,20.81
2022-10-25T11:14:31.884Z,20.85
2022-10-25T11:17:14.457Z,20.99
2022-10-25T11:19:54.603Z,21.09
2022-10-25T11:25:20.971Z,21.22
2022-10-25T11:28:04.592Z,21.18
2022-10-25T11:30:43.809Z,21.01
2022-10-25T11:33:21.702Z,21.00
2022-10-25T11:36:19.838Z,20.88
2022-10-25T11:38:59.065Z,20.67
2022-10-25T11:41:57.436Z,20.53
2022-10-25T11:44:35.688Z,20.30
2022-10-25T11:47:31.033Z,20.15
2022-10-25T11:50:12.564Z,19.95
2022-10-25T11:53:06.906Z,19.77
2022-10-25T11:55:48.608Z,19.61
2022-10-25T11:58:43.348Z,19.42
2022-10-25T12:01:32.493Z,19.30
2022-10-25T12:04:17.221Z,19.18
2022-10-25T12:06:52.351Z,18.98
2022-10-25T12:09:38.185Z,18.95
2022-10-25T12:12:30.313Z,18.93
2022-10-25T12:15:00.618Z,18.86
2022-10-25T12:17:31.076Z,18.94
2022-10-25T12:20:01.745Z,18.92
2022-10-25T12:22:37.716Z,18.97
2022-10-25T12:25:08.185Z,18.94
2022-10-25T12:27:36.146Z,18.85
2022-10-25T12:30:07.242Z,18.79
2022-10-25T12:32:42.674Z,18.69
2022-10-25T12:35:29.486Z,18.76
2022-10-25T12:38:00.030Z,18.63
2022-10-25T12:40:29.019Z,18.63
2022-10-25T12:43:12.877Z,18.69
2022-10-25T12:46:14.872Z,18.76
2022-10-25T12:48:44.058Z,18.81
2022-10-25T12:51:15.346Z,18.87
2022-10-25T12:54:06.241Z,18.93
2022-10-25T12:56:58.577Z,19.01
2022-10-25T12:59:46.448Z,19.03
2022-10-25T13:02:40.702Z,19.08
2022-10-25T13:05:37.024Z,19.20
2022-10-25T13:08:06.172Z,19.35
2022-10-25T13:10:39.766Z,19.53
2022-10-25T13:13:16.093Z,19.83
2022-10-25T13:15:46.410Z,20.06
2022-10-25T13:18:34.280Z,20.34
2022-10-25T13:21:02.268Z,20.35
2022-10-25T13:23:44.186Z,20.47
2022-10-25T13:26:15.995Z,20.46
2022-10-25T13:28:50.662Z,20.45
2022-10-25T13:31:35.479Z,20.49
2022-10-25T13:34:13.690Z,20.42
2022-10-25T13:37:00.947Z,20.31
2022-10-25T13:39:32.502Z,20.19
2022-10-25T13:42:20.245Z,20.14
2022-10-25T13:45:01.901Z,20.05
2022-10-25T13:47:45.894Z,19.92
2022-10-25T13:50:26.960Z,19.82
2022-10-25T13:53:26.225Z,19.73
2022-10-25T13:56:13.270Z,19.72
2022-10-25T13:58:56.316Z,19.66
2022-10-25T14:01:24.836Z,19.59
2022-10-25T14:03:52.002Z,19.53
2022-10-25T14:06:29.322Z,19.58
2022-10-25T14:09:20.009Z,19.72
2022-10-25T14:12:09.034Z,19.79
2022-10-25T14:15:16.947Z,20.00
2022-10-25T14:17:45.111Z,19.99
2022-10-25T14:20:30.398Z,20.22
2022-10-25T14:23:01.599Z,20.14
2022-10-25T14:25:42.508Z,20.23
2022-10-25T14:28:20.698Z,20.29
2022-10-25T14:30:49.341Z,20.21
2022-10-25T14:33:30.484Z,20.27
2022-10-25T14:36:26.620Z,20.27
2022-10-25T14:39:01.616Z,20.23
2022-10-25T14:41:30.948Z,20.20
2022-10-25T14:43:58.291Z,20.26
2022-10-25T14:46:27.168Z,20.31
2022-10-25T14:48:56.823Z,20.25
2022-10-25T14:51:32.321Z,20.26
2022-10-25T14:54:00.482Z,20.21
2022-10-25T14:56:29.061Z,20.20
2022-10-25T14:58:56.429Z,20.16
2022-10-25T15:01:23.771Z,20.02
2022-10-25T15:03:53.635Z,20.06
2022-10-25T15:06:23.798Z,19.91
2022-10-25T15:09:05.043Z,20.13
2022-10-25T15:11:40.695Z,19.70
2022-10-25T15:14:21.328Z,19.53
2022-10-25T15:16:49.866Z,19.33
2022-10-25T15:19:20.322Z,19.17
2022-10-25T15:21:50.134Z,18.97
2022-10-25T15:24:25.428Z,18.78
2022-10-25T15:26:59.650Z,18.61
2022-10-25T15:29:42.373Z,18.37
2022-10-25T15:32:27.542Z,18.28
2022-10-25T15:34:57.090Z,18.00
2022-10-25T15:37:25.525Z,17.95
2022-10-25T15:39:54.182Z,17.79
2022-10-25T15:42:22.574Z,17.63
2022-10-25T15:44:49.410Z,17.52
2022-10-25T15:47:34.299Z,17.42
2022-10-25T15:50:06.751Z,17.31
2022-10-25T15:52:33.325Z,17.17
2022-10-25T15:54:59.658Z,17.15
2022-10-25T15:57:27.345Z,17.07
2022-10-25T15:59:54.081Z,16.95
2022-10-25T16:02:26.232Z,16.84
2022-10-25T16:04:52.629Z,16.79
2022-10-25T16:07:19.322Z,16.69
2022-10-25T16:09:45.863Z,16.63
2022-10-25T16:12:20.974Z,16.54
2022-10-25T16:14:49.458Z,16.51
2022-10-25T16:17:15.821Z,16.39
2022-10-25T16:19:42.207Z,16.39
2022-10-25T16:22:08.754Z,16.39
2022-10-25T16:24:35.198Z,16.37
2022-10-25T16:27:01.972Z,16.35
2022-10-25T16:29:29.514Z,16.38
2022-10-25T16:31:55.848Z,16.37
2022-10-25T16:34:22.217Z,16.39
2022-10-25T16:36:50.305Z,16.38
2022-10-25T16:39:17.306Z,16.40
2022-10-25T16:41:46.474Z,16.44
2022-10-25T16:44:17.261Z,16.42
2022-10-25T16:46:44.829Z,16.46
2022-10-25T16:49:11.665Z,16.46
2022-10-25T16:51:39.226Z,16.43
2022-10-25T16:54:06.269Z,16.50
2022-10-25T16:56:32.673Z,16.48
2022-10-25T16:58:59.486Z,16.52
2022-10-25T17:01:33.845Z,16.47
2022-10-25T17:04:01.532Z,16.56
2022-10-25T17:06:40.748Z,16.58
2022-10-25T17:09:08.225Z,16.50
2022-10-25T17:11:34.673Z,16.54
2022-10-25T17:14:01.050Z,16.58
2022-10-25T17:16:27.420Z,16.55
2022-10-25T17:18:53.777Z,16.61
2022-10-25T17:21:20.150Z,16.53
2022-10-25T17:23:46.686Z,16.55
2022-10-25T17:26:13.863Z,16.58
2022-10-25T17:28:43.872Z,16.54
2022-10-25T17:31:13.350Z,16.58
2022-10-25T17:33:40.636Z,16.52
2022-10-25T17:36:10.211Z,16.44
2022-10-25T17:38:36.869Z,16.47
2022-10-25T17:41:03.753Z,16.42
2022-10-25T17:43:30.196Z,16.46
2022-10-25T17:46:04.783Z,16.47
2022-10-25T17:48:31.624Z,16.48
2022-10-25T17:51:16.209Z,16.52
2022-10-25T17:53:42.625Z,16.49
2022-10-25T17:56:18.896Z,16.51
2022-10-25T17:58:47.013Z,16.47
2022-10-25T18:01:16.865Z,16.49
2022-10-25T18:03:43.407Z,16.52
2022-10-25T18:06:13.024Z,16.48
2022-10-25T18:08:39.728Z,16.49
2022-10-25T18:11:10.421Z,16.50
2022-10-25T18:13:38.329Z,16.47
2022-10-25T18:18:38.629Z,16.29
2022-10-25T18:21:06.498Z,16.34
2022-10-25T18:23:33.646Z,16.32
2022-10-25T18:26:00.396Z,16.21
2022-10-25T18:28:27.061Z,16.18
2022-10-25T18:31:08.358Z,16.14
2022-10-25T18:33:37.305Z,15.93
2022-10-25T18:36:12.187Z,15.93
2022-10-25T18:38:38.651Z,15.82
2022-10-25T18:41:10.578Z,15.70
2022-10-25T18:43:36.918Z,15.71
2022-10-25T18:46:03.447Z,15.63
2022-10-25T18:48:29.875Z,15.49
2022-10-25T18:50:56.247Z,15.46
2022-10-25T18:53:22.959Z,15.36
2022-10-25T18:55:52.440Z,15.36
2022-10-25T18:58:19.377Z,15.29
2022-10-25T19:00:46.358Z,15.17
2022-10-25T19:03:14.011Z,15.13
2022-10-25T19:05:41.168Z,15.06
2022-10-25T19:08:09.895Z,14.99
2022-10-25T19:10:40.717Z,14.88
2022-10-25T19:13:08.577Z,14.85
2022-10-25T19:15:35.009Z,14.82
2022-10-25T19:18:01.490Z,14.80
2022-10-25T19:20:27.925Z,14.65
2022-10-25T19:22:58.504Z,14.67
2022-10-25T19:25:28.559Z,14.63
2022-10-25T19:27:55.620Z,14.66
2022-10-25T19:30:22.410Z,14.61
2022-10-25T19:32:48.918Z,14.56
2022-10-25T19:35:15.371Z,14.50
2022-10-25T19:37:41.839Z,14.45
2022-10-25T19:40:09.883Z,14.45
2022-10-25T19:42:36.262Z,14.39
2022-10-25T19:45:04.454Z,14.43
2022-10-25T19:47:30.923Z,14.41
2022-10-25T19:49:57.653Z,14.39
2022-10-25T19:52:24.097Z,14.32
2022-10-25T19:54:50.522Z,14.33
2022-10-25T19:57:16.965Z,14.28
2022-10-25T19:59:43.425Z,14.26
2022-10-25T20:02:10.133Z,14.22
2022-10-25T20:04:36.783Z,14.22
2022-10-25T20:07:05.318Z,14.17
2022-10-25T20:09:31.723Z,14.08
2022-10-25T20:11:58.126Z,14.09
2022-10-25T20:14:24.520Z,14.02
2022-10-25T20:16:50.994Z,14.09
2022-10-25T20:19:17.421Z,13.96
2022-10-25T20:21:44.001Z,14.02
2022-10-25T20:24:10.537Z,13.99
2022-10-25T20:26:39.685Z,13.99
2022-10-25T20:29:15.629Z,14.00
2022-10-25T20:31:45.036Z,13.93
2022-10-25T20:34:11.439Z,13.97
2022-10-25T20:36:38.367Z,13.86
2022-10-25T20:39:04.859Z,13.82
2022-10-25T20:41:33.924Z,13.83
2022-10-25T20:44:02.854Z,13.78
2022-10-25T20:46:29.890Z,13.83
2022-10-25T20:48:57.238Z,13.82
2022-10-25T20:51:23.890Z,13.77
2022-10-25T20:53:50.752Z,13.75
2022-10-25T20:56:19.046Z,13.69
2022-10-25T20:58:45.822Z,13.72
2022-10-25T21:01:12.449Z,13.65
2022-10-25T21:03:39.278Z,13.63
2022-10-25T21:06:07.758Z,13.69
2022-10-25T21:08:36.909Z,13.65
2022-10-25T21:11:06.638Z,13.66
2022-10-25T21:13:34.851Z,13.63
2022-10-25T21:16:12.009Z,13.58
2022-10-25T21:18:39.058Z,13.54
2022-10-25T21:21:07.956Z,13.59
2022-10-25T21:23:35.164Z,13.53
2022-10-25T21:26:04.503Z,13.54
2022-10-25T21:28:36.673Z,13.55
2022-10-25T21:31:08.443Z,13.52
2022-10-25T21:33:34.826Z,13.43
2022-10-25T21:36:10.820Z,13.54
2022-10-25T21:38:37.283Z,13.50
2022-10-25T21:41:12.562Z,13.51
2022-10-25T21:43:49.684Z,13.51
2022-10-25T21:46:17.629Z,13.48
2022-10-25T21:48:47.282Z,13.41
2022-10-25T21:51:14.410Z,13.48
2022-10-25T21:53:41.074Z,13.39
2022-10-25T21:56:10.511Z,13.48
2022-10-25T21:58:41.344Z,13.40
2022-10-25T22:01:12.518Z,13.46
2022-10-25T22:03:39.888Z,13.44
2022-10-25T22:06:07.832Z,13.44
2022-10-25T22:08:37.410Z,13.42
2022-10-25T22:11:07.319Z,13.36
2022-10-25T22:13:37.326Z,13.41
2022-10-25T22:16:09.743Z,13.37
2022-10-25T22:18:37.225Z,13.34
2022-10-25T22:21:10.062Z,13.35
2022-10-25T22:23:37.520Z,13.40
2022-10-25T22:26:06.716Z,13.43
2022-10-25T22:28:38.362Z,13.46
2022-10-25T22:31:11.957Z,13.46
2022-10-25T22:33:39.180Z,13.55
2022-10-25T22:36:15.036Z,13.57
2022-10-25T22:38:42.439Z,13.61
2022-10-25T22:41:28.027Z,13.69
2022-10-25T22:43:54.593Z,13.68
2022-10-25T22:46:25.148Z,13.75
2022-10-25T22:48:53.786Z,13.76
2022-10-25T22:51:21.506Z,13.76
2022-10-25T22:53:47.861Z,13.71
2022-10-25T22:56:15.743Z,13.73
2022-10-25T22:58:43.450Z,13.70
2022-10-25T23:01:37.619Z,13.71
2022-10-25T23:04:09.221Z,13.63
2022-10-25T23:06:38.018Z,13.58
2022-10-25T23:09:09.071Z,13.53
2022-10-25T23:11:37.617Z,13.47
2022-10-25T23:14:05.228Z,13.44
2022-10-25T23:16:31.704Z,13.36
2022-10-25T23:18:58.132Z,13.32
2022-10-25T23:21:26.738Z,13.32
2022-10-25T23:27:39.813Z,13.23
2022-10-25T23:30:09.835Z,13.20
2022-10-25T23:32:38.873Z,13.19
2022-10-25T23:35:05.650Z,13.19
2022-10-25T23:37:32.044Z,13.06
2022-10-25T23:39:58.415Z,13.09
2022-10-25T23:42:24.868Z,13.04
2022-10-25T23:44:51.259Z,12.96
2022-10-25T23:47:17.613Z,12.93
2022-10-25T23:49:44.045Z,12.86
2022-10-25T23:52:10.411Z,12.81
2022-10-25T23:54:36.767Z,12.77
2022-10-25T23:57:03.341Z,12.76
2022-10-25T23:59:29.699Z,12.73
